KOAJ/OAJ METAR and TAF weather

Enter ICAO airport designator
Station Type Date Time Source
KOAJ METAR 2021/09/24 04:56 UTC NOAA

KOAJ 240456Z AUTO 01003KT 10SM CLR 16/14 A3000 RMK AO2 SLP161 T01610144 402500161


Station Type Date Time Source
KOAJ Decoded METAR 2021/09/24 04:56 UTC NOAA

Jacksonville, Albert J Ellis Airport, NC, United States (KOAJ) 34-50N 077-37W
Sep 24, 2021 - 12:56 AM EDT / 2021.09.24 0456 UTC
Wind: from the N (010 degrees) at 3 MPH (3 KT):0
Visibility: 10 mile(s):0
Sky conditions: clear
Temperature: 61.0 F (16.1 C)
Dew Point: 57.9 F (14.4 C)
Relative Humidity: 89%
Pressure (altimeter): 30 in. Hg (1015 hPa)
ob: KOAJ 240456Z AUTO 01003KT 10SM CLR 16/14 A3000 RMK AO2 SLP161 T01610144 402500161
cycle: 5

Station Type Date Time Source
KOAJ TAF 2021/09/24 06:24 UTC NOAA

TAF KOAJ 240521Z 2406/2506 35005KT P6SM SKC
FM241400 35008G13KT P6SM FEW150
FM242300 03003KT P6SM FEW200
AMD LTD TO CLD VIS AND WIND

Example: see airport list